sensor_id;sensor_type;location;lat;lon;timestamp;P1;durP1;ratioP1;P2;durP2;ratioP2
78903;SDS011;68291;49.602;8.722;2023-08-06T00:00:39;3.60;;;2.90;;
78903;SDS011;68291;49.602;8.722;2023-08-06T00:03:51;4.17;;;2.83;;
78903;SDS011;68291;49.602;8.722;2023-08-06T00:06:41;4.03;;;2.80;;
78903;SDS011;68291;49.602;8.722;2023-08-06T00:09:32;6.57;;;2.70;;
78903;SDS011;68291;49.602;8.722;2023-08-06T00:12:44;7.03;;;2.70;;
78903;SDS011;68291;49.602;8.722;2023-08-06T00:15:49;3.47;;;3.07;;
78903;SDS011;68291;49.602;8.722;2023-08-06T00:18:30;3.20;;;2.80;;
78903;SDS011;68291;49.602;8.722;2023-08-06T00:21:27;3.33;;;2.70;;
78903;SDS011;68291;49.602;8.722;2023-08-06T00:24:19;3.23;;;2.80;;
78903;SDS011;68291;49.602;8.722;2023-08-06T00:27:01;3.13;;;2.83;;
78903;SDS011;68291;49.602;8.722;2023-08-06T00:29:56;5.53;;;2.70;;
78903;SDS011;68291;49.602;8.722;2023-08-06T00:32:43;5.70;;;3.13;;
78903;SDS011;68291;49.602;8.722;2023-08-06T00:35:56;3.23;;;2.93;;
78903;SDS011;68291;49.602;8.722;2023-08-06T00:38:43;6.13;;;3.30;;
78903;SDS011;68291;49.602;8.722;2023-08-06T00:45:01;4.70;;;2.80;;
78903;SDS011;68291;49.602;8.722;2023-08-06T00:47:44;5.07;;;3.27;;
78903;SDS011;68291;49.602;8.722;2023-08-06T00:50:25;6.17;;;3.33;;
78903;SDS011;68291;49.602;8.722;2023-08-06T00:53:27;2.73;;;2.43;;
78903;SDS011;68291;49.602;8.722;2023-08-06T00:56:32;3.40;;;2.80;;
78903;SDS011;68291;49.602;8.722;2023-08-06T00:59:45;7.57;;;2.90;;
78903;SDS011;68291;49.602;8.722;2023-08-06T01:02:45;6.97;;;2.83;;
78903;SDS011;68291;49.602;8.722;2023-08-06T01:06:17;4.43;;;2.60;;
78903;SDS011;68291;49.602;8.722;2023-08-06T01:09:41;3.87;;;2.40;;
78903;SDS011;68291;49.602;8.722;2023-08-06T01:12:42;5.90;;;2.50;;
78903;SDS011;68291;49.602;8.722;2023-08-06T01:18:48;3.80;;;2.50;;
78903;SDS011;68291;49.602;8.722;2023-08-06T01:25:08;4.50;;;2.50;;
78903;SDS011;68291;49.602;8.722;2023-08-06T01:27:43;2.87;;;2.50;;
78903;SDS011;68291;49.602;8.722;2023-08-06T01:30:22;2.70;;;1.90;;
78903;SDS011;68291;49.602;8.722;2023-08-06T01:33:33;2.93;;;2.40;;
78903;SDS011;68291;49.602;8.722;2023-08-06T01:36:50;3.60;;;2.43;;
78903;SDS011;68291;49.602;8.722;2023-08-06T01:43:31;4.73;;;2.40;;
78903;SDS011;68291;49.602;8.722;2023-08-06T01:46:18;2.57;;;2.37;;
78903;SDS011;68291;49.602;8.722;2023-08-06T01:49:23;3.00;;;2.60;;
78903;SDS011;68291;49.602;8.722;2023-08-06T01:52:22;3.63;;;2.80;;
78903;SDS011;68291;49.602;8.722;2023-08-06T01:55:08;4.00;;;2.53;;
78903;SDS011;68291;49.602;8.722;2023-08-06T01:57:54;3.53;;;2.37;;
78903;SDS011;68291;49.602;8.722;2023-08-06T02:00:35;2.20;;;2.00;;
78903;SDS011;68291;49.602;8.722;2023-08-06T02:03:31;3.30;;;2.37;;
78903;SDS011;68291;49.602;8.722;2023-08-06T02:06:24;3.47;;;2.43;;
78903;SDS011;68291;49.602;8.722;2023-08-06T02:08:54;2.83;;;2.30;;
78903;SDS011;68291;49.602;8.722;2023-08-06T02:11:28;2.43;;;2.23;;
78903;SDS011;68291;49.602;8.722;2023-08-06T02:14:30;2.30;;;2.10;;
78903;SDS011;68291;49.602;8.722;2023-08-06T02:17:38;7.60;;;2.50;;
78903;SDS011;68291;49.602;8.722;2023-08-06T02:20:32;2.57;;;2.37;;
78903;SDS011;68291;49.602;8.722;2023-08-06T02:23:10;4.77;;;2.40;;
78903;SDS011;68291;49.602;8.722;2023-08-06T02:25:46;4.83;;;2.67;;
78903;SDS011;68291;49.602;8.722;2023-08-06T02:28:26;3.17;;;2.57;;
78903;SDS011;68291;49.602;8.722;2023-08-06T02:34:10;2.53;;;2.00;;
78903;SDS011;68291;49.602;8.722;2023-08-06T02:37:09;2.43;;;2.23;;
78903;SDS011;68291;49.602;8.722;2023-08-06T02:40:09;4.83;;;2.10;;
78903;SDS011;68291;49.602;8.722;2023-08-06T02:43:07;4.67;;;2.40;;
78903;SDS011;68291;49.602;8.722;2023-08-06T02:45:47;2.97;;;2.30;;
78903;SDS011;68291;49.602;8.722;2023-08-06T02:51:46;4.33;;;2.40;;
78903;SDS011;68291;49.602;8.722;2023-08-06T02:54:46;3.43;;;2.60;;
78903;SDS011;68291;49.602;8.722;2023-08-06T02:57:48;3.47;;;2.27;;
78903;SDS011;68291;49.602;8.722;2023-08-06T03:00:59;3.77;;;2.20;;
78903;SDS011;68291;49.602;8.722;2023-08-06T03:07:09;2.57;;;2.37;;
78903;SDS011;68291;49.602;8.722;2023-08-06T03:09:54;5.03;;;2.27;;
78903;SDS011;68291;49.602;8.722;2023-08-06T03:12:42;2.80;;;2.30;;
78903;SDS011;68291;49.602;8.722;2023-08-06T03:15:37;3.53;;;2.30;;
78903;SDS011;68291;49.602;8.722;2023-08-06T03:18:18;3.90;;;2.30;;
78903;SDS011;68291;49.602;8.722;2023-08-06T03:21:03;3.33;;;2.30;;
78903;SDS011;68291;49.602;8.722;2023-08-06T03:23:42;3.37;;;2.57;;
78903;SDS011;68291;49.602;8.722;2023-08-06T03:26:27;3.17;;;2.23;;
78903;SDS011;68291;49.602;8.722;2023-08-06T03:29:09;4.13;;;2.20;;
78903;SDS011;68291;49.602;8.722;2023-08-06T03:32:18;2.50;;;2.30;;
78903;SDS011;68291;49.602;8.722;2023-08-06T03:35:26;3.27;;;2.30;;
78903;SDS011;68291;49.602;8.722;2023-08-06T03:38:36;3.37;;;2.13;;
78903;SDS011;68291;49.602;8.722;2023-08-06T03:41:12;4.70;;;2.07;;
78903;SDS011;68291;49.602;8.722;2023-08-06T03:43:55;4.07;;;2.20;;
78903;SDS011;68291;49.602;8.722;2023-08-06T03:46:32;3.27;;;2.27;;
78903;SDS011;68291;49.602;8.722;2023-08-06T03:49:18;2.93;;;2.20;;
78903;SDS011;68291;49.602;8.722;2023-08-06T03:52:05;5.97;;;2.67;;
78903;SDS011;68291;49.602;8.722;2023-08-06T03:54:52;4.73;;;2.30;;
78903;SDS011;68291;49.602;8.722;2023-08-06T03:57:37;4.20;;;2.40;;
78903;SDS011;68291;49.602;8.722;2023-08-06T04:00:13;2.57;;;2.10;;
78903;SDS011;68291;49.602;8.722;2023-08-06T04:03:12;3.80;;;2.00;;
78903;SDS011;68291;49.602;8.722;2023-08-06T04:06:28;3.20;;;2.10;;
78903;SDS011;68291;49.602;8.722;2023-08-06T04:09:24;2.87;;;1.80;;
78903;SDS011;68291;49.602;8.722;2023-08-06T04:12:43;2.80;;;1.90;;
78903;SDS011;68291;49.602;8.722;2023-08-06T04:15:19;3.37;;;2.17;;
78903;SDS011;68291;49.602;8.722;2023-08-06T04:18:15;2.97;;;2.00;;
78903;SDS011;68291;49.602;8.722;2023-08-06T04:21:32;4.87;;;2.10;;
78903;SDS011;68291;49.602;8.722;2023-08-06T04:24:17;3.30;;;2.00;;
78903;SDS011;68291;49.602;8.722;2023-08-06T04:27:00;3.83;;;2.00;;
78903;SDS011;68291;49.602;8.722;2023-08-06T04:29:49;3.53;;;1.73;;
78903;SDS011;68291;49.602;8.722;2023-08-06T04:32:53;2.63;;;1.93;;
78903;SDS011;68291;49.602;8.722;2023-08-06T04:35:55;3.10;;;2.10;;
78903;SDS011;68291;49.602;8.722;2023-08-06T04:38:38;3.47;;;2.20;;
78903;SDS011;68291;49.602;8.722;2023-08-06T04:41:34;2.27;;;2.03;;
78903;SDS011;68291;49.602;8.722;2023-08-06T04:44:38;5.73;;;2.17;;
78903;SDS011;68291;49.602;8.722;2023-08-06T04:48:05;4.40;;;2.20;;
78903;SDS011;68291;49.602;8.722;2023-08-06T04:50:43;2.33;;;2.10;;
78903;SDS011;68291;49.602;8.722;2023-08-06T04:53:26;3.53;;;2.10;;
78903;SDS011;68291;49.602;8.722;2023-08-06T04:56:00;2.67;;;2.07;;
78903;SDS011;68291;49.602;8.722;2023-08-06T04:58:40;3.33;;;1.83;;
78903;SDS011;68291;49.602;8.722;2023-08-06T05:01:55;4.23;;;2.07;;
78903;SDS011;68291;49.602;8.722;2023-08-06T05:04:58;2.80;;;2.20;;
78903;SDS011;68291;49.602;8.722;2023-08-06T05:07:47;4.80;;;2.00;;
78903;SDS011;68291;49.602;8.722;2023-08-06T05:10:52;3.87;;;1.80;;
78903;SDS011;68291;49.602;8.722;2023-08-06T05:13:48;2.83;;;1.90;;
78903;SDS011;68291;49.602;8.722;2023-08-06T05:16:44;3.47;;;1.70;;
78903;SDS011;68291;49.602;8.722;2023-08-06T05:20:03;1.97;;;1.70;;
78903;SDS011;68291;49.602;8.722;2023-08-06T05:23:05;3.90;;;1.90;;
78903;SDS011;68291;49.602;8.722;2023-08-06T05:26:08;4.37;;;1.83;;
78903;SDS011;68291;49.602;8.722;2023-08-06T05:28:53;1.90;;;1.60;;
78903;SDS011;68291;49.602;8.722;2023-08-06T05:31:43;3.20;;;1.50;;
78903;SDS011;68291;49.602;8.722;2023-08-06T05:34:28;1.90;;;1.30;;
78903;SDS011;68291;49.602;8.722;2023-08-06T05:41:04;2.30;;;1.20;;
78903;SDS011;68291;49.602;8.722;2023-08-06T05:43:47;1.87;;;1.30;;
78903;SDS011;68291;49.602;8.722;2023-08-06T05:46:39;3.37;;;1.40;;
78903;SDS011;68291;49.602;8.722;2023-08-06T05:49:44;1.80;;;1.10;;
78903;SDS011;68291;49.602;8.722;2023-08-06T05:52:47;4.33;;;1.50;;
78903;SDS011;68291;49.602;8.722;2023-08-06T05:59:32;2.40;;;1.20;;
78903;SDS011;68291;49.602;8.722;2023-08-06T06:02:11;2.27;;;1.30;;
78903;SDS011;68291;49.602;8.722;2023-08-06T06:05:10;3.00;;;1.47;;
78903;SDS011;68291;49.602;8.722;2023-08-06T06:08:12;2.67;;;1.10;;
78903;SDS011;68291;49.602;8.722;2023-08-06T06:11:08;2.77;;;1.27;;
78903;SDS011;68291;49.602;8.722;2023-08-06T06:14:02;2.80;;;1.30;;
78903;SDS011;68291;49.602;8.722;2023-08-06T06:17:01;2.37;;;1.40;;
78903;SDS011;68291;49.602;8.722;2023-08-06T06:20:01;3.53;;;1.67;;
78903;SDS011;68291;49.602;8.722;2023-08-06T06:22:57;2.87;;;1.57;;
78903;SDS011;68291;49.602;8.722;2023-08-06T06:25:42;1.30;;;1.20;;
78903;SDS011;68291;49.602;8.722;2023-08-06T06:28:49;1.80;;;1.40;;
78903;SDS011;68291;49.602;8.722;2023-08-06T06:34:46;4.23;;;1.50;;
78903;SDS011;68291;49.602;8.722;2023-08-06T06:37:43;3.23;;;1.33;;
78903;SDS011;68291;49.602;8.722;2023-08-06T06:40:58;3.00;;;1.30;;
78903;SDS011;68291;49.602;8.722;2023-08-06T06:44:02;3.87;;;1.30;;
78903;SDS011;68291;49.602;8.722;2023-08-06T06:46:58;1.83;;;1.00;;
78903;SDS011;68291;49.602;8.722;2023-08-06T06:49:56;4.63;;;1.37;;
78903;SDS011;68291;49.602;8.722;2023-08-06T06:52:53;2.77;;;1.40;;
78903;SDS011;68291;49.602;8.722;2023-08-06T06:55:36;1.90;;;1.07;;
78903;SDS011;68291;49.602;8.722;2023-08-06T06:58:19;3.10;;;1.40;;
78903;SDS011;68291;49.602;8.722;2023-08-06T07:01:05;3.23;;;1.50;;
78903;SDS011;68291;49.602;8.722;2023-08-06T07:03:50;3.13;;;1.30;;
78903;SDS011;68291;49.602;8.722;2023-08-06T07:06:26;3.40;;;1.47;;
78903;SDS011;68291;49.602;8.722;2023-08-06T07:09:08;2.47;;;1.30;;
78903;SDS011;68291;49.602;8.722;2023-08-06T07:11:47;3.83;;;1.40;;
78903;SDS011;68291;49.602;8.722;2023-08-06T07:14:32;2.37;;;1.37;;
78903;SDS011;68291;49.602;8.722;2023-08-06T07:17:18;2.70;;;1.30;;
78903;SDS011;68291;49.602;8.722;2023-08-06T07:20:05;4.87;;;1.30;;
78903;SDS011;68291;49.602;8.722;2023-08-06T07:25:58;1.53;;;1.00;;
78903;SDS011;68291;49.602;8.722;2023-08-06T07:29:09;3.67;;;1.30;;
78903;SDS011;68291;49.602;8.722;2023-08-06T07:32:16;3.03;;;1.30;;
78903;SDS011;68291;49.602;8.722;2023-08-06T07:34:58;2.07;;;1.07;;
78903;SDS011;68291;49.602;8.722;2023-08-06T07:37:59;3.70;;;1.43;;
78903;SDS011;68291;49.602;8.722;2023-08-06T07:44:04;1.33;;;1.00;;
78903;SDS011;68291;49.602;8.722;2023-08-06T07:47:02;1.83;;;1.47;;
78903;SDS011;68291;49.602;8.722;2023-08-06T07:50:00;2.23;;;1.00;;
78903;SDS011;68291;49.602;8.722;2023-08-06T07:52:47;1.93;;;0.87;;
78903;SDS011;68291;49.602;8.722;2023-08-06T07:55:42;3.23;;;1.17;;
78903;SDS011;68291;49.602;8.722;2023-08-06T08:01:55;2.20;;;1.10;;
78903;SDS011;68291;49.602;8.722;2023-08-06T08:04:58;1.23;;;0.90;;
78903;SDS011;68291;49.602;8.722;2023-08-06T08:08:02;1.37;;;1.03;;
78903;SDS011;68291;49.602;8.722;2023-08-06T08:10:52;1.70;;;1.23;;
78903;SDS011;68291;49.602;8.722;2023-08-06T08:13:48;1.13;;;0.73;;
78903;SDS011;68291;49.602;8.722;2023-08-06T08:20:04;1.07;;;0.90;;
78903;SDS011;68291;49.602;8.722;2023-08-06T08:22:50;0.87;;;0.87;;
78903;SDS011;68291;49.602;8.722;2023-08-06T08:25:36;0.80;;;0.73;;
78903;SDS011;68291;49.602;8.722;2023-08-06T08:28:19;1.77;;;0.97;;
78903;SDS011;68291;49.602;8.722;2023-08-06T08:31:08;2.00;;;1.17;;
78903;SDS011;68291;49.602;8.722;2023-08-06T08:34:07;1.17;;;0.90;;
78903;SDS011;68291;49.602;8.722;2023-08-06T08:37:05;1.23;;;0.80;;
78903;SDS011;68291;49.602;8.722;2023-08-06T08:39:54;1.97;;;1.00;;
78903;SDS011;68291;49.602;8.722;2023-08-06T08:42:40;1.70;;;1.03;;
78903;SDS011;68291;49.602;8.722;2023-08-06T08:45:36;3.00;;;1.03;;
78903;SDS011;68291;49.602;8.722;2023-08-06T08:48:40;1.10;;;1.00;;
78903;SDS011;68291;49.602;8.722;2023-08-06T08:54:38;3.67;;;1.10;;
78903;SDS011;68291;49.602;8.722;2023-08-06T08:57:17;1.00;;;0.90;;
78903;SDS011;68291;49.602;8.722;2023-08-06T09:00:03;2.00;;;1.00;;
78903;SDS011;68291;49.602;8.722;2023-08-06T09:03:01;1.23;;;1.10;;
78903;SDS011;68291;49.602;8.722;2023-08-06T09:06:06;0.63;;;0.63;;
78903;SDS011;68291;49.602;8.722;2023-08-06T09:09:17;0.67;;;0.67;;
78903;SDS011;68291;49.602;8.722;2023-08-06T09:11:59;0.77;;;0.77;;
78903;SDS011;68291;49.602;8.722;2023-08-06T09:14:52;0.60;;;0.60;;
78903;SDS011;68291;49.602;8.722;2023-08-06T09:17:41;0.60;;;0.60;;
78903;SDS011;68291;49.602;8.722;2023-08-06T09:20:48;1.40;;;1.07;;
78903;SDS011;68291;49.602;8.722;2023-08-06T09:23:50;0.83;;;0.80;;
78903;SDS011;68291;49.602;8.722;2023-08-06T09:29:50;0.80;;;0.80;;
78903;SDS011;68291;49.602;8.722;2023-08-06T09:32:46;0.90;;;0.77;;
78903;SDS011;68291;49.602;8.722;2023-08-06T09:35:40;2.60;;;1.03;;
78903;SDS011;68291;49.602;8.722;2023-08-06T09:38:37;1.57;;;0.80;;
78903;SDS011;68291;49.602;8.722;2023-08-06T09:41:31;1.90;;;1.00;;
78903;SDS011;68291;49.602;8.722;2023-08-06T09:48:03;2.00;;;0.87;;
78903;SDS011;68291;49.602;8.722;2023-08-06T09:50:40;1.13;;;1.03;;
78903;SDS011;68291;49.602;8.722;2023-08-06T09:53:26;1.00;;;0.80;;
78903;SDS011;68291;49.602;8.722;2023-08-06T09:56:12;0.83;;;0.83;;
78903;SDS011;68291;49.602;8.722;2023-08-06T09:58:54;2.03;;;1.00;;
78903;SDS011;68291;49.602;8.722;2023-08-06T10:01:45;2.00;;;0.80;;
78903;SDS011;68291;49.602;8.722;2023-08-06T10:04:20;1.00;;;0.90;;
78903;SDS011;68291;49.602;8.722;2023-08-06T10:07:30;0.90;;;0.90;;
78903;SDS011;68291;49.602;8.722;2023-08-06T10:10:26;2.93;;;1.07;;
78903;SDS011;68291;49.602;8.722;2023-08-06T10:13:12;1.00;;;0.90;;
78903;SDS011;68291;49.602;8.722;2023-08-06T10:15:56;2.37;;;1.00;;
78903;SDS011;68291;49.602;8.722;2023-08-06T10:22:10;1.17;;;1.07;;
78903;SDS011;68291;49.602;8.722;2023-08-06T10:25:23;3.00;;;0.90;;
78903;SDS011;68291;49.602;8.722;2023-08-06T10:28:09;0.60;;;0.60;;
78903;SDS011;68291;49.602;8.722;2023-08-06T10:30:46;0.60;;;0.60;;
78903;SDS011;68291;49.602;8.722;2023-08-06T10:33:40;0.77;;;0.77;;
78903;SDS011;68291;49.602;8.722;2023-08-06T10:36:21;0.50;;;0.50;;
78903;SDS011;68291;49.602;8.722;2023-08-06T10:39:03;0.50;;;0.50;;
78903;SDS011;68291;49.602;8.722;2023-08-06T10:42:19;1.80;;;0.57;;
78903;SDS011;68291;49.602;8.722;2023-08-06T10:45:11;0.57;;;0.40;;
78903;SDS011;68291;49.602;8.722;2023-08-06T10:47:59;0.40;;;0.40;;
78903;SDS011;68291;49.602;8.722;2023-08-06T10:51:14;0.50;;;0.50;;
78903;SDS011;68291;49.602;8.722;2023-08-06T10:58:06;0.30;;;0.30;;
78903;SDS011;68291;49.602;8.722;2023-08-06T11:01:09;0.40;;;0.40;;
78903;SDS011;68291;49.602;8.722;2023-08-06T11:03:45;0.43;;;0.43;;
78903;SDS011;68291;49.602;8.722;2023-08-06T11:06:23;0.63;;;0.57;;
78903;SDS011;68291;49.602;8.722;2023-08-06T11:09:19;0.77;;;0.50;;
78903;SDS011;68291;49.602;8.722;2023-08-06T11:15:34;0.47;;;0.47;;
78903;SDS011;68291;49.602;8.722;2023-08-06T11:18:37;0.70;;;0.67;;
78903;SDS011;68291;49.602;8.722;2023-08-06T11:21:20;0.60;;;0.60;;
78903;SDS011;68291;49.602;8.722;2023-08-06T11:24:00;0.60;;;0.60;;
78903;SDS011;68291;49.602;8.722;2023-08-06T11:27:16;0.90;;;0.80;;
78903;SDS011;68291;49.602;8.722;2023-08-06T11:30:05;0.50;;;0.50;;
78903;SDS011;68291;49.602;8.722;2023-08-06T11:33:20;0.70;;;0.70;;
78903;SDS011;68291;49.602;8.722;2023-08-06T11:36:07;1.00;;;0.80;;
78903;SDS011;68291;49.602;8.722;2023-08-06T11:38:45;1.80;;;0.70;;
78903;SDS011;68291;49.602;8.722;2023-08-06T11:41:35;1.73;;;0.60;;
78903;SDS011;68291;49.602;8.722;2023-08-06T11:44:19;0.80;;;0.80;;
78903;SDS011;68291;49.602;8.722;2023-08-06T11:46:54;0.80;;;0.80;;
78903;SDS011;68291;49.602;8.722;2023-08-06T11:49:50;0.50;;;0.50;;
78903;SDS011;68291;49.602;8.722;2023-08-06T11:52:46;0.70;;;0.70;;
78903;SDS011;68291;49.602;8.722;2023-08-06T11:55:35;0.80;;;0.80;;
78903;SDS011;68291;49.602;8.722;2023-08-06T11:58:51;4.63;;;0.93;;
78903;SDS011;68291;49.602;8.722;2023-08-06T12:01:40;0.87;;;0.87;;
78903;SDS011;68291;49.602;8.722;2023-08-06T12:05:12;0.97;;;0.90;;
78903;SDS011;68291;49.602;8.722;2023-08-06T12:07:54;0.80;;;0.80;;
78903;SDS011;68291;49.602;8.722;2023-08-06T12:10:38;0.80;;;0.80;;
78903;SDS011;68291;49.602;8.722;2023-08-06T12:13:19;0.60;;;0.60;;
78903;SDS011;68291;49.602;8.722;2023-08-06T12:16:05;1.03;;;0.90;;
78903;SDS011;68291;49.602;8.722;2023-08-06T12:19:21;1.03;;;0.80;;
78903;SDS011;68291;49.602;8.722;2023-08-06T12:22:41;0.90;;;0.90;;
78903;SDS011;68291;49.602;8.722;2023-08-06T12:25:24;1.37;;;0.90;;
78903;SDS011;68291;49.602;8.722;2023-08-06T12:28:08;1.03;;;0.80;;
78903;SDS011;68291;49.602;8.722;2023-08-06T12:30:54;2.23;;;0.90;;
78903;SDS011;68291;49.602;8.722;2023-08-06T12:33:59;1.50;;;0.67;;
78903;SDS011;68291;49.602;8.722;2023-08-06T12:36:40;1.57;;;1.00;;
78903;SDS011;68291;49.602;8.722;2023-08-06T12:39:50;1.73;;;1.10;;
78903;SDS011;68291;49.602;8.722;2023-08-06T12:42:39;1.37;;;1.10;;
78903;SDS011;68291;49.602;8.722;2023-08-06T12:45:36;1.00;;;0.73;;
78903;SDS011;68291;49.602;8.722;2023-08-06T12:48:37;1.13;;;1.00;;
78903;SDS011;68291;49.602;8.722;2023-08-06T12:51:40;0.70;;;0.70;;
78903;SDS011;68291;49.602;8.722;2023-08-06T12:54:21;0.70;;;0.70;;
78903;SDS011;68291;49.602;8.722;2023-08-06T12:57:19;0.90;;;0.90;;
78903;SDS011;68291;49.602;8.722;2023-08-06T13:00:15;0.67;;;0.67;;
78903;SDS011;68291;49.602;8.722;2023-08-06T13:02:51;1.10;;;1.00;;
78903;SDS011;68291;49.602;8.722;2023-08-06T13:05:31;1.43;;;1.00;;
78903;SDS011;68291;49.602;8.722;2023-08-06T13:08:24;1.93;;;0.90;;
78903;SDS011;68291;49.602;8.722;2023-08-06T13:11:30;1.23;;;1.13;;
78903;SDS011;68291;49.602;8.722;2023-08-06T13:17:36;1.03;;;0.90;;
78903;SDS011;68291;49.602;8.722;2023-08-06T13:20:14;2.60;;;0.87;;
78903;SDS011;68291;49.602;8.722;2023-08-06T13:22:50;1.30;;;1.00;;
78903;SDS011;68291;49.602;8.722;2023-08-06T13:25:32;1.07;;;1.00;;
78903;SDS011;68291;49.602;8.722;2023-08-06T13:28:18;1.33;;;1.20;;
78903;SDS011;68291;49.602;8.722;2023-08-06T13:31:01;1.03;;;1.00;;
78903;SDS011;68291;49.602;8.722;2023-08-06T13:33:40;1.00;;;1.00;;
78903;SDS011;68291;49.602;8.722;2023-08-06T13:36:29;1.90;;;0.90;;
78903;SDS011;68291;49.602;8.722;2023-08-06T13:39:06;1.13;;;1.03;;
78903;SDS011;68291;49.602;8.722;2023-08-06T13:42:15;3.10;;;0.90;;
78903;SDS011;68291;49.602;8.722;2023-08-06T13:45:21;1.80;;;1.00;;
78903;SDS011;68291;49.602;8.722;2023-08-06T13:51:26;1.93;;;0.83;;
78903;SDS011;68291;49.602;8.722;2023-08-06T13:54:26;1.93;;;1.20;;
78903;SDS011;68291;49.602;8.722;2023-08-06T13:57:23;1.87;;;1.00;;
78903;SDS011;68291;49.602;8.722;2023-08-06T14:00:11;0.93;;;0.90;;
78903;SDS011;68291;49.602;8.722;2023-08-06T14:02:42;1.57;;;0.77;;
78903;SDS011;68291;49.602;8.722;2023-08-06T14:09:02;0.70;;;0.70;;
78903;SDS011;68291;49.602;8.722;2023-08-06T14:11:50;1.00;;;0.90;;
78903;SDS011;68291;49.602;8.722;2023-08-06T14:14:39;0.97;;;0.87;;
78903;SDS011;68291;49.602;8.722;2023-08-06T14:17:21;0.73;;;0.70;;
78903;SDS011;68291;49.602;8.722;2023-08-06T14:19:54;1.30;;;0.90;;
78903;SDS011;68291;49.602;8.722;2023-08-06T14:26:12;2.10;;;1.00;;
78903;SDS011;68291;49.602;8.722;2023-08-06T14:28:58;1.20;;;0.90;;
78903;SDS011;68291;49.602;8.722;2023-08-06T14:31:37;1.10;;;1.00;;
78903;SDS011;68291;49.602;8.722;2023-08-06T14:34:23;1.53;;;1.00;;
78903;SDS011;68291;49.602;8.722;2023-08-06T14:37:03;2.83;;;0.63;;
78903;SDS011;68291;49.602;8.722;2023-08-06T14:40:28;1.77;;;0.83;;
78903;SDS011;68291;49.602;8.722;2023-08-06T14:43:08;1.80;;;0.97;;
78903;SDS011;68291;49.602;8.722;2023-08-06T14:46:11;1.07;;;0.90;;
78903;SDS011;68291;49.602;8.722;2023-08-06T14:48:58;1.60;;;0.83;;
78903;SDS011;68291;49.602;8.722;2023-08-06T14:52:08;2.47;;;0.80;;
78903;SDS011;68291;49.602;8.722;2023-08-06T14:54:42;0.83;;;0.83;;
78903;SDS011;68291;49.602;8.722;2023-08-06T14:57:40;0.80;;;0.70;;
78903;SDS011;68291;49.602;8.722;2023-08-06T15:00:34;1.40;;;0.77;;
78903;SDS011;68291;49.602;8.722;2023-08-06T15:03:20;0.70;;;0.70;;
78903;SDS011;68291;49.602;8.722;2023-08-06T15:06:18;1.57;;;0.60;;
78903;SDS011;68291;49.602;8.722;2023-08-06T15:09:14;0.93;;;0.70;;
78903;SDS011;68291;49.602;8.722;2023-08-06T15:12:10;0.73;;;0.73;;
78903;SDS011;68291;49.602;8.722;2023-08-06T15:15:03;1.23;;;0.90;;
78903;SDS011;68291;49.602;8.722;2023-08-06T15:18:14;1.00;;;0.90;;
78903;SDS011;68291;49.602;8.722;2023-08-06T15:21:03;0.80;;;0.80;;
78903;SDS011;68291;49.602;8.722;2023-08-06T15:24:04;0.73;;;0.70;;
78903;SDS011;68291;49.602;8.722;2023-08-06T15:26:59;1.47;;;0.80;;
78903;SDS011;68291;49.602;8.722;2023-08-06T15:29:45;0.90;;;0.70;;
78903;SDS011;68291;49.602;8.722;2023-08-06T15:32:35;1.80;;;0.90;;
78903;SDS011;68291;49.602;8.722;2023-08-06T15:35:14;1.90;;;0.80;;
78903;SDS011;68291;49.602;8.722;2023-08-06T15:38:17;1.00;;;0.77;;
78903;SDS011;68291;49.602;8.722;2023-08-06T15:41:13;2.60;;;1.20;;
78903;SDS011;68291;49.602;8.722;2023-08-06T15:44:09;1.40;;;0.93;;
78903;SDS011;68291;49.602;8.722;2023-08-06T15:46:56;1.27;;;0.80;;
78903;SDS011;68291;49.602;8.722;2023-08-06T15:52:54;0.60;;;0.60;;
78903;SDS011;68291;49.602;8.722;2023-08-06T15:55:33;1.00;;;0.90;;
78903;SDS011;68291;49.602;8.722;2023-08-06T15:58:15;1.30;;;1.20;;
78903;SDS011;68291;49.602;8.722;2023-08-06T16:00:49;1.47;;;1.00;;
78903;SDS011;68291;49.602;8.722;2023-08-06T16:03:30;1.83;;;1.10;;
78903;SDS011;68291;49.602;8.722;2023-08-06T16:06:47;3.10;;;1.00;;
78903;SDS011;68291;49.602;8.722;2023-08-06T16:09:37;1.00;;;0.80;;
78903;SDS011;68291;49.602;8.722;2023-08-06T16:12:23;2.40;;;1.10;;
78903;SDS011;68291;49.602;8.722;2023-08-06T16:15:09;1.20;;;0.93;;
78903;SDS011;68291;49.602;8.722;2023-08-06T16:17:56;0.83;;;0.83;;
78903;SDS011;68291;49.602;8.722;2023-08-06T16:20:41;1.60;;;0.90;;
78903;SDS011;68291;49.602;8.722;2023-08-06T16:26:31;1.30;;;0.70;;
78903;SDS011;68291;49.602;8.722;2023-08-06T16:29:16;1.23;;;0.73;;
78903;SDS011;68291;49.602;8.722;2023-08-06T16:32:13;0.87;;;0.73;;
78903;SDS011;68291;49.602;8.722;2023-08-06T16:35:18;1.13;;;0.67;;
78903;SDS011;68291;49.602;8.722;2023-08-06T16:38:14;1.00;;;0.90;;
78903;SDS011;68291;49.602;8.722;2023-08-06T16:44:26;1.03;;;0.70;;
78903;SDS011;68291;49.602;8.722;2023-08-06T16:47:10;0.60;;;0.60;;
78903;SDS011;68291;49.602;8.722;2023-08-06T16:49:46;1.00;;;0.80;;
78903;SDS011;68291;49.602;8.722;2023-08-06T16:52:25;2.53;;;0.83;;
78903;SDS011;68291;49.602;8.722;2023-08-06T16:54:57;0.90;;;0.70;;
78903;SDS011;68291;49.602;8.722;2023-08-06T17:01:07;1.40;;;0.90;;
78903;SDS011;68291;49.602;8.722;2023-08-06T17:03:51;1.87;;;1.00;;
78903;SDS011;68291;49.602;8.722;2023-08-06T17:06:43;0.87;;;0.80;;
78903;SDS011;68291;49.602;8.722;2023-08-06T17:09:38;1.60;;;1.10;;
78903;SDS011;68291;49.602;8.722;2023-08-06T17:12:34;1.43;;;0.80;;
78903;SDS011;68291;49.602;8.722;2023-08-06T17:15:26;1.07;;;1.00;;
78903;SDS011;68291;49.602;8.722;2023-08-06T17:18:08;1.60;;;0.90;;
78903;SDS011;68291;49.602;8.722;2023-08-06T17:21:17;2.07;;;1.27;;
78903;SDS011;68291;49.602;8.722;2023-08-06T17:24:00;1.37;;;1.07;;
78903;SDS011;68291;49.602;8.722;2023-08-06T17:26:42;3.23;;;1.23;;
78903;SDS011;68291;49.602;8.722;2023-08-06T17:29:30;1.40;;;1.27;;
78903;SDS011;68291;49.602;8.722;2023-08-06T17:35:42;1.77;;;1.20;;
78903;SDS011;68291;49.602;8.722;2023-08-06T17:38:21;1.17;;;1.00;;
78903;SDS011;68291;49.602;8.722;2023-08-06T17:41:16;1.57;;;1.00;;
78903;SDS011;68291;49.602;8.722;2023-08-06T17:43:50;1.10;;;1.00;;
78903;SDS011;68291;49.602;8.722;2023-08-06T17:46:29;1.33;;;1.23;;
78903;SDS011;68291;49.602;8.722;2023-08-06T17:52:21;2.80;;;1.10;;
78903;SDS011;68291;49.602;8.722;2023-08-06T17:55:10;3.43;;;1.37;;
78903;SDS011;68291;49.602;8.722;2023-08-06T17:57:57;1.47;;;1.20;;
78903;SDS011;68291;49.602;8.722;2023-08-06T18:00:54;1.47;;;1.00;;
78903;SDS011;68291;49.602;8.722;2023-08-06T18:03:43;1.20;;;1.10;;
78903;SDS011;68291;49.602;8.722;2023-08-06T18:09:49;1.90;;;0.93;;
78903;SDS011;68291;49.602;8.722;2023-08-06T18:12:30;1.57;;;1.00;;
78903;SDS011;68291;49.602;8.722;2023-08-06T18:15:22;2.70;;;1.13;;
78903;SDS011;68291;49.602;8.722;2023-08-06T18:18:18;1.23;;;0.93;;
78903;SDS011;68291;49.602;8.722;2023-08-06T18:21:18;1.30;;;0.90;;
78903;SDS011;68291;49.602;8.722;2023-08-06T18:24:14;1.50;;;1.03;;
78903;SDS011;68291;49.602;8.722;2023-08-06T18:27:14;1.27;;;1.00;;
78903;SDS011;68291;49.602;8.722;2023-08-06T18:30:27;0.90;;;0.87;;
78903;SDS011;68291;49.602;8.722;2023-08-06T18:33:13;3.03;;;1.00;;
78903;SDS011;68291;49.602;8.722;2023-08-06T18:36:03;1.70;;;1.10;;
78903;SDS011;68291;49.602;8.722;2023-08-06T18:38:40;2.13;;;1.07;;
78903;SDS011;68291;49.602;8.722;2023-08-06T18:41:29;2.00;;;1.10;;
78903;SDS011;68291;49.602;8.722;2023-08-06T18:44:09;3.27;;;0.87;;
78903;SDS011;68291;49.602;8.722;2023-08-06T18:46:53;0.97;;;0.93;;
78903;SDS011;68291;49.602;8.722;2023-08-06T18:49:36;1.50;;;1.20;;
78903;SDS011;68291;49.602;8.722;2023-08-06T18:52:29;1.13;;;0.87;;
78903;SDS011;68291;49.602;8.722;2023-08-06T18:55:30;0.93;;;0.83;;
78903;SDS011;68291;49.602;8.722;2023-08-06T19:01:31;1.00;;;0.90;;
78903;SDS011;68291;49.602;8.722;2023-08-06T19:04:45;2.63;;;1.00;;